Time;durP1;ratioP1;P1;durP2;ratioP2;P2;SDS_P1;SDS_P2;PMS_P1;PMS_P2;Temp;Humidity;BMP_temperature;BMP_pressure;BME280_temperature;BME280_humidity;BME280_pressure;Samples;Min_cycle;Max_cycle;Signal;HPM_P1;HPM_P2
2023/08/04 00:00:55;;;;;;;14.48;4.28;;;;;;;;;;5005703;28;20208;-72
2023/08/04 00:03:20;;;;;;;9.93;4.13;;;;;;;;;;4989562;28;20226;-72
2023/08/04 00:05:45;;;;;;;16.23;5.07;;;;;;;;;;5007433;28;20206;-72
2023/08/04 00:08:11;;;;;;;18.25;4.93;;;;;;;;;;5013620;28;20622;-72
2023/08/04 00:10:36;;;;;;;11.52;4.20;;;;;;;;;;5017339;28;20199;-72
2023/08/04 00:13:02;;;;;;;12.68;4.95;;;;;;;;;;5008486;28;20182;-72
2023/08/04 00:15:28;;;;;;;8.15;4.15;;;;;;;;;;5005539;28;20197;-72
2023/08/04 00:17:54;;;;;;;8.50;4.03;;;;;;;;;;5012173;28;20215;-73
2023/08/04 00:20:19;;;;;;;16.10;5.03;;;;;;;;;;5003814;28;20266;-72
2023/08/04 00:22:45;;;;;;;11.13;5.13;;;;;;;;;;5007500;28;20195;-72
2023/08/04 00:25:10;;;;;;;10.30;4.63;;;;;;;;;;5012714;28;20632;-72
2023/08/04 00:27:36;;;;;;;14.82;4.30;;;;;;;;;;4996810;28;20230;-72
2023/08/04 00:30:02;;;;;;;13.45;4.25;;;;;;;;;;5000376;28;20716;-72
2023/08/04 00:32:27;;;;;;;13.55;4.40;;;;;;;;;;5004946;28;20198;-72
2023/08/04 00:34:53;;;;;;;12.88;4.50;;;;;;;;;;5011569;28;20190;-72
2023/08/04 00:37:18;;;;;;;12.50;4.70;;;;;;;;;;5010754;28;20191;-72
2023/08/04 00:39:43;;;;;;;10.00;4.93;;;;;;;;;;5009202;28;20207;-72
2023/08/04 00:42:09;;;;;;;12.30;4.85;;;;;;;;;;5012104;28;20641;-71
2023/08/04 00:44:34;;;;;;;12.63;4.60;;;;;;;;;;4997084;28;20206;-71
2023/08/04 00:47:00;;;;;;;14.27;4.35;;;;;;;;;;5003432;28;20670;-72
2023/08/04 00:49:25;;;;;;;9.82;4.30;;;;;;;;;;5017437;28;20186;-72
2023/08/04 00:51:51;;;;;;;10.20;4.43;;;;;;;;;;5020487;28;20182;-73
2023/08/04 00:54:16;;;;;;;12.70;3.95;;;;;;;;;;5002031;28;20554;-73
2023/08/04 00:56:42;;;;;;;11.20;4.53;;;;;;;;;;5012120;28;20199;-73
2023/08/04 00:59:07;;;;;;;6.97;3.97;;;;;;;;;;4987802;28;20193;-73
2023/08/04 01:01:33;;;;;;;9.63;3.90;;;;;;;;;;5013551;28;20194;-73
2023/08/04 01:03:58;;;;;;;10.75;4.18;;;;;;;;;;4979059;28;20199;-73
2023/08/04 01:07:06;;;;;;;10.18;4.18;;;;;;;;;;4994510;28;20697;-72
2023/08/04 01:10:14;;;;;;;18.33;4.60;;;;;;;;;;5013319;28;20206;-72
2023/08/04 01:12:56;;;;;;;8.80;4.25;;;;;;;;;;4997548;28;20727;-72
2023/08/04 01:15:24;;;;;;;10.02;4.28;;;;;;;;;;5000048;28;20637;-71
2023/08/04 01:17:50;;;;;;;11.88;4.05;;;;;;;;;;5014150;28;20240;-71
2023/08/04 01:20:15;;;;;;;9.50;4.03;;;;;;;;;;4995079;28;20332;-73
2023/08/04 01:22:41;;;;;;;9.48;4.05;;;;;;;;;;5010287;28;20191;-71
2023/08/04 01:25:06;;;;;;;10.25;4.15;;;;;;;;;;5010362;28;20282;-72
2023/08/04 01:27:37;;;;;;;14.60;3.65;;;;;;;;;;5020146;28;20557;-71
2023/08/04 01:30:06;;;;;;;9.93;3.70;;;;;;;;;;5009284;28;20772;-72
2023/08/04 01:32:32;;;;;;;18.50;4.32;;;;;;;;;;5019177;28;20625;-71
2023/08/04 01:34:58;;;;;;;12.45;4.28;;;;;;;;;;4998279;28;20679;-71
2023/08/04 01:37:24;;;;;;;11.40;4.30;;;;;;;;;;4996785;28;20541;-73
2023/08/04 01:39:50;;;;;;;10.20;4.10;;;;;;;;;;5009801;28;20194;-73
2023/08/04 01:42:15;;;;;;;12.32;4.22;;;;;;;;;;4995382;28;20357;-73
2023/08/04 01:44:41;;;;;;;11.95;4.70;;;;;;;;;;5013596;28;20270;-73
2023/08/04 01:47:07;;;;;;;11.88;4.95;;;;;;;;;;5001873;28;20191;-73
2023/08/04 01:49:33;;;;;;;12.90;4.45;;;;;;;;;;5013978;28;20273;-73
2023/08/04 01:51:59;;;;;;;12.98;5.07;;;;;;;;;;5017427;28;20610;-73
2023/08/04 01:54:24;;;;;;;14.80;5.35;;;;;;;;;;5011192;28;20209;-73
2023/08/04 01:56:49;;;;;;;13.38;4.68;;;;;;;;;;5012797;28;20227;-73
2023/08/04 01:59:15;;;;;;;15.18;4.97;;;;;;;;;;5024461;28;20493;-73
2023/08/04 02:01:40;;;;;;;12.60;4.90;;;;;;;;;;5018714;28;20218;-73
2023/08/04 02:04:06;;;;;;;17.90;5.10;;;;;;;;;;5013657;28;20223;-71
2023/08/04 02:06:31;;;;;;;10.23;4.43;;;;;;;;;;5013041;28;20214;-71
2023/08/04 02:08:56;;;;;;;15.10;4.78;;;;;;;;;;5012635;28;20533;-73
2023/08/04 02:11:22;;;;;;;17.00;5.13;;;;;;;;;;4996677;28;20182;-72
2023/08/04 02:13:47;;;;;;;15.43;4.72;;;;;;;;;;4995916;28;20277;-73
2023/08/04 02:16:13;;;;;;;12.73;4.85;;;;;;;;;;5011184;28;20186;-72
2023/08/04 02:18:39;;;;;;;17.35;5.05;;;;;;;;;;5004435;28;20712;-73
2023/08/04 02:21:04;;;;;;;12.43;4.68;;;;;;;;;;5004814;28;20202;-73
2023/08/04 02:23:31;;;;;;;13.30;4.80;;;;;;;;;;5003957;28;20704;-72
2023/08/04 02:25:57;;;;;;;11.95;4.80;;;;;;;;;;5007149;28;20559;-73
2023/08/04 02:28:22;;;;;;;10.90;5.47;;;;;;;;;;4993477;28;20284;-73
2023/08/04 02:30:48;;;;;;;13.40;5.10;;;;;;;;;;4996216;28;20199;-73
2023/08/04 02:33:13;;;;;;;13.70;5.53;;;;;;;;;;4995050;28;20599;-73
2023/08/04 02:35:39;;;;;;;12.30;5.05;;;;;;;;;;5011944;28;20187;-73
2023/08/04 02:38:04;;;;;;;15.38;5.63;;;;;;;;;;5021295;28;20187;-73
2023/08/04 02:40:29;;;;;;;14.30;5.78;;;;;;;;;;5006029;28;20217;-73
2023/08/04 02:42:55;;;;;;;15.98;5.10;;;;;;;;;;5000215;28;20602;-73
2023/08/04 02:45:20;;;;;;;11.27;5.15;;;;;;;;;;5015877;28;20218;-73
2023/08/04 02:47:45;;;;;;;14.73;4.80;;;;;;;;;;5001175;28;20198;-72
2023/08/04 02:50:11;;;;;;;9.85;5.40;;;;;;;;;;4994469;28;20186;-72
2023/08/04 02:52:36;;;;;;;11.43;4.97;;;;;;;;;;5014515;28;20190;-72
2023/08/04 02:55:02;;;;;;;10.75;5.18;;;;;;;;;;5014210;28;20186;-71
2023/08/04 02:57:31;;;;;;;16.60;6.00;;;;;;;;;;5011794;28;20206;-71
2023/08/04 02:59:57;;;;;;;17.48;5.43;;;;;;;;;;4993583;28;20202;-72
2023/08/04 03:02:24;;;;;;;10.20;5.32;;;;;;;;;;5021205;28;20191;-72
2023/08/04 03:04:50;;;;;;;13.63;5.82;;;;;;;;;;5010519;28;20206;-73
2023/08/04 03:07:15;;;;;;;14.35;4.95;;;;;;;;;;5008171;28;20198;-73
2023/08/04 03:09:40;;;;;;;14.07;5.10;;;;;;;;;;5004180;28;20186;-73
2023/08/04 03:12:06;;;;;;;14.85;5.10;;;;;;;;;;5007335;28;20675;-73
2023/08/04 03:14:31;;;;;;;13.30;5.07;;;;;;;;;;5019353;28;20198;-73
2023/08/04 03:16:57;;;;;;;15.25;4.82;;;;;;;;;;5012315;28;20218;-73
2023/08/04 03:19:22;;;;;;;17.70;4.63;;;;;;;;;;5014653;28;20213;-73
2023/08/04 03:21:48;;;;;;;11.32;4.70;;;;;;;;;;5020551;28;20646;-73
2023/08/04 03:24:13;;;;;;;9.60;4.35;;;;;;;;;;5020004;28;20619;-73
2023/08/04 03:26:38;;;;;;;10.50;4.18;;;;;;;;;;4987717;28;20233;-73
2023/08/04 03:29:04;;;;;;;12.13;5.03;;;;;;;;;;5012524;28;20245;-72
2023/08/04 03:31:29;;;;;;;10.82;4.65;;;;;;;;;;5011337;28;20221;-72
2023/08/04 03:33:56;;;;;;;11.80;4.50;;;;;;;;;;5015151;28;21347;-72
2023/08/04 03:36:21;;;;;;;9.85;4.35;;;;;;;;;;5011968;28;20193;-72
2023/08/04 03:38:47;;;;;;;13.07;4.20;;;;;;;;;;5010157;28;20222;-72
2023/08/04 03:41:12;;;;;;;11.10;4.60;;;;;;;;;;4994742;28;20182;-72
2023/08/04 03:43:37;;;;;;;14.95;4.80;;;;;;;;;;5014096;28;20487;-72
2023/08/04 03:46:03;;;;;;;14.25;4.95;;;;;;;;;;5010925;28;20317;-72
2023/08/04 03:48:28;;;;;;;12.82;5.00;;;;;;;;;;5005550;28;20223;-71
2023/08/04 03:50:53;;;;;;;14.50;4.68;;;;;;;;;;5002662;28;20207;-72
2023/08/04 03:53:19;;;;;;;9.15;3.97;;;;;;;;;;5002061;28;20194;-72
2023/08/04 03:55:44;;;;;;;11.25;4.50;;;;;;;;;;5010380;28;20191;-72
2023/08/04 03:58:09;;;;;;;17.08;4.45;;;;;;;;;;5010317;28;20198;-73
2023/08/04 04:00:35;;;;;;;9.27;4.57;;;;;;;;;;4993473;28;20654;-72
2023/08/04 04:03:00;;;;;;;12.32;4.82;;;;;;;;;;4996434;28;20195;-71
2023/08/04 04:05:25;;;;;;;13.18;5.15;;;;;;;;;;5010221;28;20250;-72
2023/08/04 04:07:51;;;;;;;10.65;4.88;;;;;;;;;;5011078;28;20599;-71
2023/08/04 04:10:16;;;;;;;12.85;4.75;;;;;;;;;;5008368;28;20648;-71
2023/08/04 04:12:42;;;;;;;12.60;4.85;;;;;;;;;;5016920;28;20216;-71
2023/08/04 04:15:07;;;;;;;14.45;5.50;;;;;;;;;;5010191;28;20198;-72
2023/08/04 04:17:34;;;;;;;16.58;5.43;;;;;;;;;;5008227;28;20381;-72
2023/08/04 04:19:59;;;;;;;9.05;4.43;;;;;;;;;;5003963;28;20215;-72
2023/08/04 04:22:25;;;;;;;15.57;5.25;;;;;;;;;;4997230;28;20225;-72
2023/08/04 04:24:50;;;;;;;14.15;5.38;;;;;;;;;;5010377;28;20190;-72
2023/08/04 04:27:16;;;;;;;11.38;5.43;;;;;;;;;;4985022;28;20763;-72
2023/08/04 04:29:41;;;;;;;13.25;5.40;;;;;;;;;;5006160;28;20409;-72
2023/08/04 04:32:07;;;;;;;14.55;5.50;;;;;;;;;;5004563;28;20262;-72
2023/08/04 04:34:32;;;;;;;14.07;4.85;;;;;;;;;;4995127;28;20493;-72
2023/08/04 04:36:58;;;;;;;19.27;5.63;;;;;;;;;;5012041;28;20502;-72
2023/08/04 04:39:25;;;;;;;13.65;5.53;;;;;;;;;;5019511;28;20191;-72
2023/08/04 04:41:50;;;;;;;11.65;5.50;;;;;;;;;;4998625;28;20269;-72
2023/08/04 04:44:15;;;;;;;16.58;5.72;;;;;;;;;;5021369;28;20277;-71
2023/08/04 04:46:41;;;;;;;17.20;5.68;;;;;;;;;;5013348;28;20295;-72
2023/08/04 04:49:06;;;;;;;15.70;5.95;;;;;;;;;;4985654;28;20187;-71
2023/08/04 04:51:32;;;;;;;13.70;5.25;;;;;;;;;;5006416;28;20765;-72
2023/08/04 04:53:57;;;;;;;12.65;5.35;;;;;;;;;;5005154;28;20189;-72
2023/08/04 04:56:24;;;;;;;16.58;5.72;;;;;;;;;;5011087;28;20191;-73
2023/08/04 04:58:49;;;;;;;13.50;5.63;;;;;;;;;;4999374;28;20202;-72
2023/08/04 05:01:15;;;;;;;11.82;5.47;;;;;;;;;;5000722;28;20646;-72
2023/08/04 05:03:40;;;;;;;10.18;5.65;;;;;;;;;;5006837;28;20198;-72
2023/08/04 05:06:06;;;;;;;8.98;5.40;;;;;;;;;;5008818;28;20713;-72
2023/08/04 05:08:31;;;;;;;11.30;5.25;;;;;;;;;;4993099;28;20294;-72
2023/08/04 05:10:56;;;;;;;11.98;4.93;;;;;;;;;;5014220;28;20548;-72
2023/08/04 05:13:22;;;;;;;12.27;5.20;;;;;;;;;;5004221;28;20188;-72
2023/08/04 05:15:47;;;;;;;8.30;4.18;;;;;;;;;;5013778;28;20191;-72
2023/08/04 05:18:13;;;;;;;8.70;4.03;;;;;;;;;;5017576;28;21343;-72
2023/08/04 05:20:38;;;;;;;8.07;4.30;;;;;;;;;;5016718;28;20222;-72
2023/08/04 05:23:04;;;;;;;8.48;3.90;;;;;;;;;;5019208;28;20190;-73
2023/08/04 05:25:29;;;;;;;8.35;4.03;;;;;;;;;;5007067;28;20253;-73
2023/08/04 05:27:55;;;;;;;7.20;3.78;;;;;;;;;;4992796;28;20183;-71
2023/08/04 05:30:20;;;;;;;7.90;3.75;;;;;;;;;;5009907;28;20191;-72
2023/08/04 05:32:46;;;;;;;5.55;3.33;;;;;;;;;;4983297;28;20658;-73
2023/08/04 05:35:12;;;;;;;7.55;3.65;;;;;;;;;;5011914;28;20197;-71
2023/08/04 05:37:37;;;;;;;9.05;3.80;;;;;;;;;;5008135;28;20199;-72
2023/08/04 05:40:06;;;;;;;10.13;3.70;;;;;;;;;;4991851;28;20191;-71
2023/08/04 05:42:31;;;;;;;6.10;3.45;;;;;;;;;;5006598;28;20203;-71
2023/08/04 05:44:57;;;;;;;7.28;4.30;;;;;;;;;;5008026;28;20231;-71
2023/08/04 05:47:25;;;;;;;7.70;3.58;;;;;;;;;;4991917;28;20187;-72
2023/08/04 05:49:51;;;;;;;7.45;4.70;;;;;;;;;;5003514;28;20190;-72
2023/08/04 05:52:16;;;;;;;6.47;3.95;;;;;;;;;;4994079;28;20503;-72
2023/08/04 05:54:42;;;;;;;7.10;3.60;;;;;;;;;;5004393;28;20563;-73
2023/08/04 05:57:07;;;;;;;10.65;4.38;;;;;;;;;;5015349;28;20263;-72
2023/08/04 05:59:32;;;;;;;6.85;4.03;;;;;;;;;;5002877;28;20225;-73
2023/08/04 06:01:58;;;;;;;13.10;4.40;;;;;;;;;;5006503;28;20199;-73
2023/08/04 06:04:23;;;;;;;9.20;4.18;;;;;;;;;;5006542;28;20191;-72
2023/08/04 06:06:48;;;;;;;9.23;4.07;;;;;;;;;;4994127;28;20293;-72
2023/08/04 06:09:14;;;;;;;10.43;4.20;;;;;;;;;;5003087;28;20196;-73
2023/08/04 06:11:39;;;;;;;8.63;4.28;;;;;;;;;;4997373;28;20187;-73
2023/08/04 06:14:05;;;;;;;14.15;4.20;;;;;;;;;;4990791;28;20214;-73
2023/08/04 06:16:30;;;;;;;8.55;4.50;;;;;;;;;;5000682;28;20267;-73
2023/08/04 06:18:58;;;;;;;6.50;3.92;;;;;;;;;;5009516;28;20202;-72
2023/08/04 06:21:23;;;;;;;12.25;4.70;;;;;;;;;;5008989;28;20191;-73
2023/08/04 06:23:48;;;;;;;10.30;4.47;;;;;;;;;;4995453;28;20681;-73
2023/08/04 06:26:14;;;;;;;11.55;3.80;;;;;;;;;;5003640;28;20215;-73
2023/08/04 06:28:40;;;;;;;9.05;4.13;;;;;;;;;;4999690;28;20500;-72
2023/08/04 06:31:05;;;;;;;8.93;4.93;;;;;;;;;;5006501;28;20187;-73
2023/08/04 06:33:31;;;;;;;9.85;4.35;;;;;;;;;;5003326;28;20210;-73
2023/08/04 06:35:56;;;;;;;6.97;4.28;;;;;;;;;;5009328;28;20300;-72
2023/08/04 06:38:21;;;;;;;9.02;4.30;;;;;;;;;;5007169;28;20572;-73
2023/08/04 06:40:47;;;;;;;8.65;3.67;;;;;;;;;;5010266;28;20288;-72
2023/08/04 06:43:12;;;;;;;8.40;4.07;;;;;;;;;;4996774;28;20611;-73
2023/08/04 06:45:38;;;;;;;7.85;3.95;;;;;;;;;;4996891;28;20222;-73
2023/08/04 06:48:03;;;;;;;6.10;3.75;;;;;;;;;;5010282;28;20590;-73
2023/08/04 06:50:29;;;;;;;8.40;3.97;;;;;;;;;;4989665;28;20191;-72
2023/08/04 06:52:54;;;;;;;9.75;4.03;;;;;;;;;;5011222;28;20233;-73
2023/08/04 06:55:20;;;;;;;8.32;3.75;;;;;;;;;;5007694;28;20199;-73
2023/08/04 06:57:45;;;;;;;9.15;4.20;;;;;;;;;;5006575;28;20199;-73
2023/08/04 07:00:10;;;;;;;6.85;4.00;;;;;;;;;;5006264;28;20190;-71
2023/08/04 07:02:36;;;;;;;8.07;3.63;;;;;;;;;;5005161;28;20186;-71
2023/08/04 07:05:03;;;;;;;4.85;2.92;;;;;;;;;;5015477;28;20262;-72
2023/08/04 07:07:29;;;;;;;4.32;2.28;;;;;;;;;;5003767;28;20281;-73
2023/08/04 07:09:54;;;;;;;3.55;2.05;;;;;;;;;;4991876;28;22114;-75
2023/08/04 07:12:19;;;;;;;2.88;2.17;;;;;;;;;;4977977;28;20286;-75
2023/08/04 07:14:45;;;;;;;4.30;1.98;;;;;;;;;;5008792;28;20553;-75
2023/08/04 07:17:10;;;;;;;2.95;1.77;;;;;;;;;;4989505;28;20211;-75
2023/08/04 07:19:36;;;;;;;3.28;1.95;;;;;;;;;;4991844;28;20213;-76
2023/08/04 07:22:01;;;;;;;4.95;1.48;;;;;;;;;;4989352;28;20252;-76
2023/08/04 07:24:26;;;;;;;3.38;1.60;;;;;;;;;;5001267;28;20187;-75
2023/08/04 07:26:52;;;;;;;2.92;1.85;;;;;;;;;;5000354;28;20254;-73
2023/08/04 07:29:17;;;;;;;8.15;2.05;;;;;;;;;;4996426;28;20235;-74
2023/08/04 07:31:42;;;;;;;3.28;1.80;;;;;;;;;;4996611;28;20186;-72
2023/08/04 07:34:08;;;;;;;3.53;1.60;;;;;;;;;;5010326;28;20260;-71
2023/08/04 07:36:33;;;;;;;2.05;1.77;;;;;;;;;;4994232;28;20195;-71
2023/08/04 07:38:59;;;;;;;2.67;1.63;;;;;;;;;;4312579;28;10000863;-71
2023/08/04 07:41:25;;;;;;;5.47;1.98;;;;;;;;;;5009506;28;20442;-71
2023/08/04 07:43:51;;;;;;;4.47;2.20;;;;;;;;;;5005802;28;20202;-72
2023/08/04 07:46:24;;;;;;;2.53;1.73;;;;;;;;;;4997285;28;20206;-72
2023/08/04 07:48:51;;;;;;;3.10;1.48;;;;;;;;;;4977906;28;20334;-71
2023/08/04 07:51:16;;;;;;;1.95;0.82;;;;;;;;;;5001386;28;20195;-72
2023/08/04 07:53:42;;;;;;;2.28;1.23;;;;;;;;;;5002187;28;20564;-72
2023/08/04 07:56:07;;;;;;;2.85;1.50;;;;;;;;;;5003716;28;20321;-73
2023/08/04 07:58:33;;;;;;;3.88;1.33;;;;;;;;;;4995936;28;20205;-72
2023/08/04 08:00:58;;;;;;;3.28;1.30;;;;;;;;;;4989187;28;20341;-73
2023/08/04 08:03:24;;;;;;;4.45;1.30;;;;;;;;;;4999967;28;20195;-73
2023/08/04 08:05:49;;;;;;;2.30;1.60;;;;;;;;;;5007450;28;20228;-71
2023/08/04 08:08:17;;;;;;;2.65;1.40;;;;;;;;;;5007333;28;20562;-73
2023/08/04 08:10:42;;;;;;;2.08;1.60;;;;;;;;;;5007942;28;20229;-71
2023/08/04 08:13:08;;;;;;;2.05;1.33;;;;;;;;;;5016344;28;22057;-71
2023/08/04 08:15:35;;;;;;;2.55;1.10;;;;;;;;;;5009942;28;20191;-73
2023/08/04 08:18:01;;;;;;;8.13;1.70;;;;;;;;;;5001511;28;20230;-74
2023/08/04 08:20:26;;;;;;;4.60;1.80;;;;;;;;;;5005378;28;20199;-73
2023/08/04 08:22:51;;;;;;;3.40;1.55;;;;;;;;;;5009460;28;20186;-72
2023/08/04 08:25:17;;;;;;;4.03;1.70;;;;;;;;;;5001664;28;20234;-72
2023/08/04 08:27:42;;;;;;;3.50;1.77;;;;;;;;;;5003080;28;20557;-72
2023/08/04 08:30:08;;;;;;;3.58;1.92;;;;;;;;;;4987685;28;20202;-72
2023/08/04 08:32:33;;;;;;;4.97;1.80;;;;;;;;;;4996943;28;20191;-72
2023/08/04 08:34:59;;;;;;;2.40;1.23;;;;;;;;;;4993441;28;20803;-73
2023/08/04 08:37:24;;;;;;;3.60;1.30;;;;;;;;;;5008570;28;20202;-73
2023/08/04 08:39:49;;;;;;;4.70;1.42;;;;;;;;;;4992053;28;20204;-72
2023/08/04 08:42:15;;;;;;;3.30;1.63;;;;;;;;;;5001523;28;20278;-72
2023/08/04 08:44:40;;;;;;;2.30;1.60;;;;;;;;;;4994327;28;20191;-72
2023/08/04 08:47:06;;;;;;;3.45;1.45;;;;;;;;;;4994844;28;20269;-72
2023/08/04 08:49:42;;;;;;;3.55;1.52;;;;;;;;;;4999796;28;20705;-72
2023/08/04 08:52:09;;;;;;;3.03;1.10;;;;;;;;;;5001745;28;20624;-72
2023/08/04 08:54:35;;;;;;;1.85;0.95;;;;;;;;;;5002896;28;20183;-73
2023/08/04 08:57:01;;;;;;;1.90;1.45;;;;;;;;;;5009117;28;20206;-72
2023/08/04 08:59:26;;;;;;;3.03;1.20;;;;;;;;;;4983088;28;20199;-72
2023/08/04 09:01:52;;;;;;;0.90;0.80;;;;;;;;;;4987944;28;20197;-72
2023/08/04 09:04:18;;;;;;;2.33;1.02;;;;;;;;;;5008361;28;20198;-73
2023/08/04 09:06:44;;;;;;;1.35;0.90;;;;;;;;;;5006471;28;20222;-71
2023/08/04 09:09:09;;;;;;;3.42;1.15;;;;;;;;;;5009001;28;20191;-72
2023/08/04 09:11:35;;;;;;;3.78;0.80;;;;;;;;;;5008791;28;20191;-72
2023/08/04 09:14:02;;;;;;;1.23;0.98;;;;;;;;;;4996878;28;20195;-72
2023/08/04 09:16:32;;;;;;;1.58;0.80;;;;;;;;;;5000996;28;20190;-71
2023/08/04 09:19:05;;;;;;;1.38;0.77;;;;;;;;;;4991376;28;20194;-73
2023/08/04 09:21:31;;;;;;;1.17;0.68;;;;;;;;;;5008383;28;20322;-73
2023/08/04 09:23:56;;;;;;;1.05;0.60;;;;;;;;;;4971355;28;20682;-73
2023/08/04 09:26:22;;;;;;;1.42;0.80;;;;;;;;;;4998702;28;20264;-73
2023/08/04 09:29:04;;;;;;;1.52;0.80;;;;;;;;;;5003716;28;20253;-73
2023/08/04 09:31:35;;;;;;;0.52;0.50;;;;;;;;;;5000071;28;20194;-73
2023/08/04 09:34:04;;;;;;;0.75;0.52;;;;;;;;;;5001743;28;20198;-73
2023/08/04 09:36:29;;;;;;;0.95;0.60;;;;;;;;;;4992905;28;20179;-73
2023/08/04 09:39:01;;;;;;;1.67;0.70;;;;;;;;;;4991674;28;20281;-73
2023/08/04 09:41:27;;;;;;;1.30;0.77;;;;;;;;;;5001102;28;20198;-73
2023/08/04 09:43:52;;;;;;;1.38;0.68;;;;;;;;;;4989891;28;20187;-73
2023/08/04 09:46:18;;;;;;;0.80;0.60;;;;;;;;;;4981971;28;20285;-74
2023/08/04 09:48:43;;;;;;;1.35;0.60;;;;;;;;;;5000485;28;20592;-74
2023/08/04 09:51:09;;;;;;;1.05;0.52;;;;;;;;;;4995425;28;20741;-73
2023/08/04 09:53:46;;;;;;;1.45;0.60;;;;;;;;;;5006616;28;20199;-74
2023/08/04 09:56:13;;;;;;;2.00;0.90;;;;;;;;;;5008733;28;20191;-73
2023/08/04 09:58:39;;;;;;;1.55;0.60;;;;;;;;;;4994564;28;20602;-74
2023/08/04 10:01:05;;;;;;;0.88;0.65;;;;;;;;;;4987594;28;20175;-74
2023/08/04 10:03:32;;;;;;;1.92;0.50;;;;;;;;;;4995779;28;20252;-74
2023/08/04 10:05:59;;;;;;;0.93;0.70;;;;;;;;;;4996017;28;20573;-74
2023/08/04 10:08:33;;;;;;;3.05;0.52;;;;;;;;;;5012354;28;20210;-74
2023/08/04 10:10:59;;;;;;;1.95;0.68;;;;;;;;;;5004918;28;20206;-74
2023/08/04 10:13:26;;;;;;;2.78;0.70;;;;;;;;;;4999655;28;20477;-74
2023/08/04 10:15:54;;;;;;;2.28;0.68;;;;;;;;;;4998084;28;20888;-75
2023/08/04 10:18:19;;;;;;;2.53;1.10;;;;;;;;;;5003587;28;20229;-74
2023/08/04 10:20:45;;;;;;;2.38;0.70;;;;;;;;;;4997678;28;20187;-74
2023/08/04 10:23:13;;;;;;;1.83;0.82;;;;;;;;;;5000493;28;20250;-72
2023/08/04 10:25:52;;;;;;;1.58;0.80;;;;;;;;;;5022983;28;20230;-72
2023/08/04 10:28:18;;;;;;;0.95;0.60;;;;;;;;;;5009836;28;20254;-72
2023/08/04 10:30:43;;;;;;;3.42;0.80;;;;;;;;;;5013641;28;20645;-72
2023/08/04 10:33:12;;;;;;;0.63;0.52;;;;;;;;;;4978268;28;20658;-72
2023/08/04 10:36:08;;;;;;;0.88;0.60;;;;;;;;;;5010736;28;20656;-72
2023/08/04 10:38:46;;;;;;;1.40;0.65;;;;;;;;;;4998337;28;20195;-72
2023/08/04 10:41:12;;;;;;;0.47;0.47;;;;;;;;;;4997582;28;20708;-72
2023/08/04 10:43:39;;;;;;;0.80;0.57;;;;;;;;;;5002996;28;20274;-72
2023/08/04 10:46:10;;;;;;;0.70;0.50;;;;;;;;;;5018793;28;20215;-72
2023/08/04 10:48:39;;;;;;;0.65;0.40;;;;;;;;;;5003816;28;20190;-72
2023/08/04 10:51:09;;;;;;;1.50;0.60;;;;;;;;;;5008353;28;20184;-72
2023/08/04 10:53:35;;;;;;;0.45;0.43;;;;;;;;;;5005188;28;20275;-72
2023/08/04 10:56:04;;;;;;;0.75;0.40;;;;;;;;;;5001345;28;20229;-72
2023/08/04 10:58:29;;;;;;;0.90;0.57;;;;;;;;;;4317770;28;10000835;-73
2023/08/04 11:00:56;;;;;;;0.93;0.60;;;;;;;;;;4992925;28;20736;-73
2023/08/04 11:03:29;;;;;;;1.15;0.50;;;;;;;;;;4999814;28;20614;-72
2023/08/04 11:05:56;;;;;;;2.33;0.50;;;;;;;;;;5008972;28;20261;-73
2023/08/04 11:08:23;;;;;;;1.35;0.50;;;;;;;;;;4994241;28;20271;-72
2023/08/04 11:10:50;;;;;;;3.22;0.95;;;;;;;;;;5009112;28;20207;-76
2023/08/04 11:13:19;;;;;;;1.73;1.00;;;;;;;;;;5008977;28;20213;-74
2023/08/04 11:15:46;;;;;;;5.50;1.27;;;;;;;;;;5005721;28;20351;-73
2023/08/04 11:18:20;;;;;;;3.15;0.90;;;;;;;;;;4975269;28;20195;-74
2023/08/04 11:20:45;;;;;;;1.17;1.02;;;;;;;;;;4978117;28;20290;-76
2023/08/04 11:23:11;;;;;;;1.63;0.85;;;;;;;;;;4997734;28;20322;-74
2023/08/04 11:25:40;;;;;;;4.40;1.23;;;;;;;;;;5003842;28;20453;-73
2023/08/04 11:28:07;;;;;;;4.18;1.30;;;;;;;;;;5006344;28;20234;-73
2023/08/04 11:30:36;;;;;;;4.47;1.55;;;;;;;;;;5005686;28;20670;-73
2023/08/04 11:33:03;;;;;;;1.95;1.10;;;;;;;;;;4972652;28;20562;-73
2023/08/04 11:35:32;;;;;;;1.52;1.00;;;;;;;;;;4999560;28;20188;-73
2023/08/04 11:38:00;;;;;;;4.60;1.30;;;;;;;;;;5004384;28;20205;-74
2023/08/04 11:40:26;;;;;;;3.13;1.35;;;;;;;;;;5008636;28;20276;-73
2023/08/04 11:42:51;;;;;;;4.05;1.10;;;;;;;;;;4988790;28;20241;-73
2023/08/04 11:45:18;;;;;;;3.80;1.15;;;;;;;;;;5004302;28;20294;-73
2023/08/04 11:47:44;;;;;;;3.58;1.30;;;;;;;;;;4990849;28;20207;-73
2023/08/04 11:50:10;;;;;;;2.67;1.30;;;;;;;;;;5003446;28;20190;-75
2023/08/04 11:52:38;;;;;;;3.55;1.15;;;;;;;;;;5006344;28;20201;-73
2023/08/04 11:55:05;;;;;;;5.13;1.20;;;;;;;;;;5006995;28;20236;-73
2023/08/04 11:57:31;;;;;;;2.58;1.08;;;;;;;;;;5008756;28;20555;-73
2023/08/04 11:59:57;;;;;;;3.33;1.10;;;;;;;;;;5017439;28;20223;-73
2023/08/04 12:02:23;;;;;;;2.38;1.10;;;;;;;;;;5005465;28;20196;-73
2023/08/04 12:05:07;;;;;;;4.25;1.10;;;;;;;;;;5003032;28;20343;-74
2023/08/04 12:07:33;;;;;;;2.63;0.90;;;;;;;;;;4994991;28;20194;-74
2023/08/04 12:09:59;;;;;;;4.90;1.27;;;;;;;;;;4982875;28;20650;-73
2023/08/04 12:12:40;;;;;;;1.65;0.90;;;;;;;;;;4979360;28;20186;-73
2023/08/04 12:15:06;;;;;;;4.10;1.20;;;;;;;;;;5003545;28;20195;-74
2023/08/04 12:17:37;;;;;;;2.47;0.98;;;;;;;;;;5014066;28;20614;-73
2023/08/04 12:20:04;;;;;;;1.90;1.00;;;;;;;;;;4997122;28;20627;-72
2023/08/04 12:22:30;;;;;;;3.67;1.02;;;;;;;;;;5009573;28;20193;-73
2023/08/04 12:24:55;;;;;;;4.20;1.25;;;;;;;;;;5001717;28;20675;-73
2023/08/04 12:27:21;;;;;;;2.72;1.15;;;;;;;;;;5000124;28;20341;-72
2023/08/04 12:29:46;;;;;;;4.05;1.15;;;;;;;;;;5000501;28;20343;-72
2023/08/04 12:32:12;;;;;;;4.55;1.75;;;;;;;;;;4993518;28;20187;-74
2023/08/04 12:34:37;;;;;;;3.42;1.35;;;;;;;;;;5008968;28;20194;-74
2023/08/04 12:37:05;;;;;;;4.28;1.38;;;;;;;;;;4996183;28;20198;-74
2023/08/04 12:39:30;;;;;;;1.15;0.90;;;;;;;;;;5009861;28;20689;-74
2023/08/04 12:41:56;;;;;;;3.90;1.00;;;;;;;;;;5017297;28;20187;-74
2023/08/04 12:44:21;;;;;;;5.03;1.00;;;;;;;;;;5002480;28;20195;-77
2023/08/04 12:46:46;;;;;;;3.75;1.15;;;;;;;;;;5008972;28;20726;-77
2023/08/04 12:49:12;;;;;;;8.48;1.30;;;;;;;;;;4985628;28;20191;-76
2023/08/04 12:51:37;;;;;;;2.33;1.15;;;;;;;;;;4974381;28;20190;-76
2023/08/04 12:54:02;;;;;;;2.60;1.20;;;;;;;;;;5005360;28;20249;-75
2023/08/04 12:56:28;;;;;;;3.92;1.20;;;;;;;;;;4999641;28;20232;-75
2023/08/04 12:58:53;;;;;;;5.07;1.30;;;;;;;;;;5004751;28;20186;-75
2023/08/04 13:01:19;;;;;;;3.92;1.65;;;;;;;;;;4973052;28;20272;-74
2023/08/04 13:03:44;;;;;;;3.72;1.25;;;;;;;;;;4978000;28;20208;-74
2023/08/04 13:06:09;;;;;;;3.25;1.38;;;;;;;;;;5001663;28;20281;-74
2023/08/04 13:08:35;;;;;;;3.33;1.13;;;;;;;;;;5017228;28;20221;-73
2023/08/04 13:11:01;;;;;;;3.95;1.40;;;;;;;;;;5003539;28;20192;-73
2023/08/04 13:13:26;;;;;;;4.00;1.15;;;;;;;;;;5001379;28;20657;-74
2023/08/04 13:15:52;;;;;;;3.15;1.52;;;;;;;;;;4991704;28;20188;-74
2023/08/04 13:18:18;;;;;;;4.28;1.50;;;;;;;;;;5003268;28;20210;-74
2023/08/04 13:20:43;;;;;;;4.15;1.27;;;;;;;;;;4989525;28;20206;-74
2023/08/04 13:23:09;;;;;;;6.20;1.60;;;;;;;;;;4300021;28;9999936;-75
2023/08/04 13:25:36;;;;;;;5.78;1.67;;;;;;;;;;4972618;28;20207;-73
2023/08/04 13:28:01;;;;;;;4.97;1.30;;;;;;;;;;5003525;28;20302;-74
2023/08/04 13:30:27;;;;;;;5.05;1.73;;;;;;;;;;5006024;28;20386;-75
2023/08/04 13:32:52;;;;;;;5.05;1.55;;;;;;;;;;4993742;28;20198;-73
2023/08/04 13:35:17;;;;;;;7.43;1.45;;;;;;;;;;5010964;28;20312;-73
2023/08/04 13:37:43;;;;;;;3.67;1.38;;;;;;;;;;4993334;28;20552;-73
2023/08/04 13:40:08;;;;;;;3.28;1.45;;;;;;;;;;4996808;28;20224;-75
2023/08/04 13:42:34;;;;;;;3.05;1.35;;;;;;;;;;5017357;28;20604;-73
2023/08/04 13:44:59;;;;;;;3.40;1.08;;;;;;;;;;5022784;28;20736;-74
2023/08/04 13:47:25;;;;;;;4.35;1.40;;;;;;;;;;5011751;28;20220;-74
2023/08/04 13:49:51;;;;;;;5.63;1.35;;;;;;;;;;5010247;28;20265;-74
2023/08/04 13:52:16;;;;;;;4.63;1.65;;;;;;;;;;5012724;28;20663;-74
2023/08/04 13:54:41;;;;;;;3.90;1.30;;;;;;;;;;4998070;28;20262;-75
2023/08/04 13:57:07;;;;;;;4.88;1.55;;;;;;;;;;5004810;28;20666;-73
2023/08/04 13:59:32;;;;;;;4.03;1.60;;;;;;;;;;5005548;28;20281;-74
2023/08/04 14:01:57;;;;;;;1.77;1.10;;;;;;;;;;5005704;28;20626;-73
2023/08/04 14:04:23;;;;;;;4.63;1.20;;;;;;;;;;5003423;28;20194;-74
2023/08/04 14:06:49;;;;;;;3.50;1.60;;;;;;;;;;5006966;28;20218;-73
2023/08/04 14:09:15;;;;;;;3.03;1.20;;;;;;;;;;5003851;28;20277;-73
2023/08/04 14:11:40;;;;;;;3.92;1.50;;;;;;;;;;4986609;28;20313;-74
2023/08/04 14:14:05;;;;;;;5.00;1.75;;;;;;;;;;5006332;28;20563;-75
2023/08/04 14:16:31;;;;;;;3.15;1.33;;;;;;;;;;4976104;28;20412;-73
2023/08/04 14:18:56;;;;;;;2.33;0.95;;;;;;;;;;4988886;28;20218;-75
2023/08/04 14:21:21;;;;;;;4.57;1.20;;;;;;;;;;5000914;28;20198;-73
2023/08/04 14:23:47;;;;;;;1.67;1.13;;;;;;;;;;5004855;28;20629;-74
2023/08/04 14:26:12;;;;;;;2.55;1.13;;;;;;;;;;5010495;28;20289;-75
2023/08/04 14:28:37;;;;;;;3.10;1.20;;;;;;;;;;5006511;28;20301;-74
2023/08/04 14:31:03;;;;;;;5.65;1.30;;;;;;;;;;5011649;28;20488;-75
2023/08/04 14:33:28;;;;;;;2.88;1.42;;;;;;;;;;5007931;28;20230;-75